Time;durP1;ratioP1;P1;durP2;ratioP2;P2;SDS_P1;SDS_P2;PMS_P1;PMS_P2;Temp;Humidity;BMP_temperature;BMP_pressure;BME280_temperature;BME280_humidity;BME280_pressure;Samples;Min_cycle;Max_cycle;Signal;HPM_P1;HPM_P2
2022/01/28 00:01:25;;;;;;;16.12;8.23;;;;;;;3.84;73.40;99414.87;4303843;33;34953;-72
2022/01/28 00:04:01;;;;;;;15.98;7.80;;;;;;;3.81;74.09;99420.81;4304313;33;34680;-71
2022/01/28 00:06:28;;;;;;;14.48;7.85;;;;;;;3.74;74.02;99419.00;4314219;33;33900;-71
2022/01/28 00:08:57;;;;;;;16.05;7.82;;;;;;;3.99;73.61;99421.16;4304637;33;34674;-71
2022/01/28 00:11:24;;;;;;;16.37;8.45;;;;;;;3.56;74.89;99420.38;4302946;33;35090;-72
2022/01/28 00:13:58;;;;;;;16.05;7.57;;;;;;;3.79;73.92;99417.38;4291740;33;34448;-72
2022/01/28 00:38:34;;;;;;;;;;;;;;;4.39;71.19;99432.97;4291421;33;32768;-71
2022/01/28 00:41:03;;;;;;;15.02;7.60;;;;;;;4.23;72.13;99435.28;4303430;33;34354;-72
2022/01/28 00:43:31;;;;;;;19.08;9.27;;;;;;;4.40;71.66;99439.88;4290943;33;35126;-71
2022/01/28 00:45:59;;;;;;;16.90;8.63;;;;;;;4.32;71.25;99445.78;4303209;33;35156;-71
2022/01/28 00:48:27;;;;;;;17.73;8.10;;;;;;;4.38;71.61;99442.41;4302920;33;33869;-71
2022/01/28 00:50:55;;;;;;;17.90;8.70;;;;;;;3.72;74.49;99436.13;4303072;33;34765;-72
2022/01/28 00:53:22;;;;;;;15.40;8.35;;;;;;;4.30;72.36;99438.84;4304014;33;34923;-72
2022/01/28 00:55:52;;;;;;;15.52;7.57;;;;;;;4.12;72.47;99426.53;4303128;33;34575;-71
2022/01/28 00:58:21;;;;;;;17.25;8.57;;;;;;;4.27;71.46;99416.47;4291168;33;32601;-71
2022/01/28 01:00:49;;;;;;;15.55;7.68;;;;;;;4.08;72.43;99414.44;4302958;33;34001;-70
2022/01/28 01:03:17;;;;;;;14.50;7.62;;;;;;;3.93;72.94;99410.75;4314864;33;34061;-72
2022/01/28 01:05:45;;;;;;;18.00;7.72;;;;;;;4.33;71.44;99423.44;4303039;33;35350;-72
2022/01/28 01:08:13;;;;;;;15.25;6.72;;;;;;;4.50;71.04;99418.50;4303846;33;34182;-72
2022/01/28 01:10:41;;;;;;;19.35;7.62;;;;;;;4.57;70.32;99420.38;4289169;33;33795;-71
2022/01/28 01:13:09;;;;;;;15.88;7.65;;;;;;;4.14;72.01;99417.09;4303683;33;35903;-71
2022/01/28 01:15:41;;;;;;;16.73;8.57;;;;;;;4.23;71.99;99413.81;4297691;33;34404;-72
2022/01/28 01:23:25;;;;;;;18.20;7.57;;;;;;;3.83;73.64;99410.56;4304602;33;35050;-72
2022/01/28 01:26:08;;;;;;;17.08;8.57;;;;;;;3.70;74.57;99406.91;4291627;33;32980;-71
2022/01/28 01:28:39;;;;;;;17.67;7.62;;;;;;;4.23;72.32;99419.81;4303474;33;34314;-72
2022/01/28 01:31:16;;;;;;;15.57;8.35;;;;;;;4.33;72.09;99405.38;4304806;33;33756;-72
2022/01/28 01:33:51;;;;;;;19.45;8.25;;;;;;;4.48;71.57;99415.03;4304580;33;35019;-72
2022/01/28 01:36:20;;;;;;;14.63;7.07;;;;;;;4.77;70.49;99406.87;4304829;33;34463;-72
2022/01/28 01:38:48;;;;;;;13.90;7.25;;;;;;;4.54;71.20;99404.84;4292684;33;33540;-71
2022/01/28 01:41:27;;;;;;;15.60;7.25;;;;;;;4.54;70.61;99399.69;4291691;33;34004;-72
2022/01/28 01:46:36;;;;;;;14.80;7.45;;;;;;;4.51;71.08;99390.16;4304002;33;34787;-71
2022/01/28 01:52:04;;;;;;;15.90;7.00;;;;;;;4.70;70.58;99391.31;4293562;33;34733;-72
2022/01/28 01:54:39;;;;;;;15.88;6.65;;;;;;;4.68;70.13;99393.00;4305543;33;36055;-72
2022/01/28 01:57:10;;;;;;;12.32;6.37;;;;;;;4.82;70.03;99389.72;4291114;33;34372;-71
2022/01/28 01:59:40;;;;;;;11.80;6.37;;;;;;;4.36;70.93;99396.00;4290828;33;34309;-72
2022/01/28 02:02:09;;;;;;;16.35;7.93;;;;;;;4.70;69.14;99387.88;4289844;33;33934;-72
2022/01/28 02:04:38;;;;;;;14.35;7.18;;;;;;;5.06;68.51;99382.28;4277749;33;36005;-72
2022/01/28 02:07:06;;;;;;;15.70;7.68;;;;;;;4.79;69.89;99394.88;4305233;33;35250;-72
2022/01/28 02:09:34;;;;;;;16.95;7.68;;;;;;;5.07;68.60;99390.94;4292317;33;33365;-73
2022/01/28 02:12:02;;;;;;;17.58;6.80;;;;;;;5.27;67.79;99381.69;4315166;33;34330;-73
2022/01/28 02:14:30;;;;;;;14.13;7.12;;;;;;;5.52;67.07;99389.69;4316167;33;34930;-71
2022/01/28 02:16:59;;;;;;;16.95;6.55;;;;;;;5.26;67.04;99386.84;4291123;33;34575;-71
2022/01/28 02:19:28;;;;;;;11.10;5.00;;;;;;;4.11;70.67;99389.59;4305430;33;33491;-72
2022/01/28 02:21:56;;;;;;;14.60;7.03;;;;;;;4.39;70.26;99389.13;4304426;33;33914;-72
2022/01/28 02:24:31;;;;;;;13.65;5.70;;;;;;;4.21;70.53;99390.59;4305253;33;35755;-72
2022/01/28 02:26:59;;;;;;;12.02;6.32;;;;;;;4.12;71.79;99380.12;4304286;33;35163;-72
2022/01/28 02:29:32;;;;;;;10.60;5.37;;;;;;;4.24;71.48;99393.22;4305309;33;33635;-71
2022/01/28 02:32:03;;;;;;;11.12;5.25;;;;;;;4.50;70.39;99392.72;4291949;33;34693;-71
2022/01/28 02:34:33;;;;;;;13.32;6.07;;;;;;;3.79;72.57;99399.34;4305217;33;35038;-72
2022/01/28 02:37:02;;;;;;;10.52;5.18;;;;;;;4.46;70.35;99396.97;4302175;33;33287;-71
2022/01/28 02:39:29;;;;;;;10.23;5.18;;;;;;;4.29;70.83;99388.12;4291165;33;33343;-72
2022/01/28 02:42:06;;;;;;;10.27;4.82;;;;;;;3.99;71.66;99395.41;4313237;33;33040;-72
2022/01/28 02:47:15;;;;;;;10.65;5.00;;;;;;;4.16;71.38;99387.06;4303604;33;34410;-72
2022/01/28 02:49:45;;;;;;;10.30;4.90;;;;;;;4.64;69.72;99380.03;4305105;33;34270;-71
2022/01/28 02:52:28;;;;;;;10.50;5.20;;;;;;;4.22;70.92;99387.19;4304305;33;34635;-72
2022/01/28 02:54:56;;;;;;;10.90;4.35;;;;;;;4.42;70.16;99390.03;4304403;33;34998;-72
2022/01/28 02:57:26;;;;;;;8.82;3.62;;;;;;;4.56;70.09;99382.50;4279494;33;34729;-71
2022/01/28 02:59:54;;;;;;;6.15;3.62;;;;;;;4.71;69.09;99372.41;4304845;33;33302;-71
2022/01/28 03:02:22;;;;;;;5.72;3.58;;;;;;;4.02;71.74;99401.44;4302190;33;33850;-71
2022/01/28 03:07:26;;;;;;;9.35;4.05;;;;;;;4.54;70.01;99410.84;4304903;33;33869;-71
2022/01/28 03:12:47;;;;;;;6.20;3.72;;;;;;;4.93;68.77;99401.06;4304295;33;34636;-72
2022/01/28 03:15:20;;;;;;;5.57;3.42;;;;;;;4.70;69.02;99400.78;4304159;33;35785;-70
2022/01/28 03:18:06;;;;;;;4.62;2.28;;;;;;;4.11;71.04;99394.75;4302446;33;35285;-71
2022/01/28 03:20:42;;;;;;;5.53;2.95;;;;;;;4.82;68.95;99400.03;4303411;33;34591;-72
2022/01/28 03:23:11;;;;;;;6.57;3.50;;;;;;;4.90;69.12;99404.47;4292936;33;34011;-72
2022/01/28 03:25:43;;;;;;;7.53;2.83;;;;;;;4.86;68.92;99412.16;4304079;33;35030;-70
2022/01/28 03:28:12;;;;;;;7.25;3.40;;;;;;;4.50;70.12;99418.50;4304819;33;34617;-70
2022/01/28 03:30:40;;;;;;;7.53;3.30;;;;;;;4.79;69.28;99428.41;4304085;33;33352;-71
2022/01/28 03:33:07;;;;;;;5.55;2.92;;;;;;;4.88;69.06;99428.53;4315765;33;33041;-70
2022/01/28 03:35:36;;;;;;;4.35;2.80;;;;;;;5.01;68.13;99398.56;4304009;33;35026;-71
2022/01/28 03:38:07;;;;;;;3.22;1.90;;;;;;;4.74;68.98;99413.72;4303679;33;34445;-72
2022/01/28 03:40:36;;;;;;;5.25;2.80;;;;;;;4.87;68.62;99419.03;4304033;33;34265;-71
2022/01/28 03:43:05;;;;;;;6.68;2.97;;;;;;;4.60;69.85;99410.06;4304745;33;33982;-70
2022/01/28 03:45:34;;;;;;;4.45;2.70;;;;;;;4.49;69.57;99409.06;4290868;33;34895;-70
2022/01/28 03:48:02;;;;;;;4.68;2.53;;;;;;;4.64;69.19;99416.13;4304805;33;35435;-71
2022/01/28 03:50:34;;;;;;;3.97;2.58;;;;;;;4.92;68.41;99417.38;4290642;33;32401;-71
2022/01/28 03:53:05;;;;;;;5.87;2.75;;;;;;;4.87;68.22;99429.34;4304653;33;33812;-71
2022/01/28 03:55:33;;;;;;;4.22;2.20;;;;;;;4.79;68.77;99426.69;4301676;33;35021;-71
2022/01/28 03:58:02;;;;;;;4.80;2.75;;;;;;;4.66;69.37;99435.97;4304647;33;35271;-72
2022/01/28 04:00:31;;;;;;;4.87;2.80;;;;;;;4.54;70.08;99446.09;4303814;33;33450;-72
2022/01/28 04:03:48;;;;;;;4.30;2.42;;;;;;;4.86;68.66;99437.97;4303554;33;34666;-72
2022/01/28 04:11:31;;;;;;;8.02;2.90;;;;;;;4.83;68.33;99438.75;4303715;33;33715;-71
2022/01/28 04:19:47;;;;;;;3.67;1.95;;;;;;;4.79;67.56;99461.94;4304528;33;35148;-70
2022/01/28 04:22:16;;;;;;;4.05;2.30;;;;;;;4.85;67.63;99447.41;4303722;33;34200;-71
2022/01/28 04:24:44;;;;;;;4.40;2.20;;;;;;;4.79;67.07;99442.16;4304435;33;33906;-70
2022/01/28 04:27:12;;;;;;;3.62;2.50;;;;;;;4.77;67.07;99440.41;4303331;33;35907;-71
2022/01/28 04:29:40;;;;;;;3.78;2.30;;;;;;;4.61;67.29;99432.44;4291336;33;34450;-70
2022/01/28 04:32:09;;;;;;;4.45;2.62;;;;;;;4.56;66.87;99441.81;4290332;33;33524;-72
2022/01/28 04:34:37;;;;;;;3.60;2.12;;;;;;;4.59;66.58;99438.41;4290467;33;34675;-72
2022/01/28 04:37:19;;;;;;;3.65;2.30;;;;;;;4.74;66.41;99428.31;4290327;33;35868;-70
2022/01/28 04:39:54;;;;;;;4.37;2.40;;;;;;;4.38;67.30;99434.69;4304274;33;34435;-71
2022/01/28 05:26:02;;;;;;;3.40;1.98;;;;;;;3.83;68.68;99481.00;4248219;33;32856;-70
2022/01/28 05:27:51;;;;;;;2.03;1.60;;;;;;;4.28;67.03;99482.63;4298597;33;33896;-71
2022/01/28 05:30:19;;;;;;;2.83;1.75;;;;;;;4.19;66.65;99461.88;4304220;33;34743;-72
2022/01/28 05:32:47;;;;;;;1.48;1.33;;;;;;;4.23;66.60;99461.06;4305225;33;34456;-73
2022/01/28 05:35:16;;;;;;;3.12;1.77;;;;;;;4.30;66.22;99455.16;4303747;33;33685;-71
2022/01/28 05:37:47;;;;;;;2.03;1.65;;;;;;;4.24;66.54;99469.69;4305548;33;33793;-73
2022/01/28 05:40:15;;;;;;;3.50;2.05;;;;;;;4.36;65.82;99444.09;4305330;33;34950;-71
2022/01/28 05:42:43;;;;;;;1.83;1.25;;;;;;;4.23;66.31;99452.47;4305374;33;34585;-71
2022/01/28 05:45:11;;;;;;;1.45;1.35;;;;;;;4.37;65.74;99457.00;4305304;33;33408;-68
2022/01/28 05:47:39;;;;;;;2.65;1.80;;;;;;;4.18;65.84;99432.66;4305397;33;34702;-70
2022/01/28 05:50:08;;;;;;;3.28;1.50;;;;;;;4.32;65.87;99440.62;4305291;33;35050;-70
2022/01/28 05:52:36;;;;;;;3.35;1.65;;;;;;;4.54;64.91;99453.84;4304970;33;35376;-71
2022/01/28 05:55:05;;;;;;;2.30;1.60;;;;;;;4.39;65.65;99438.13;4292223;33;32190;-73
2022/01/28 05:57:34;;;;;;;1.40;1.30;;;;;;;4.72;65.11;99448.94;4305425;33;33918;-70
2022/01/28 06:00:03;;;;;;;4.72;1.85;;;;;;;4.19;66.42;99430.94;4291859;33;33784;-71
2022/01/28 06:02:31;;;;;;;2.42;1.58;;;;;;;4.30;66.78;99441.41;4305335;33;34633;-70
2022/01/28 06:05:00;;;;;;;3.78;1.95;;;;;;;4.42;66.08;99443.34;4305211;33;32193;-71
2022/01/28 06:07:28;;;;;;;1.67;1.33;;;;;;;4.55;65.97;99463.28;4292370;33;34704;-71
2022/01/28 06:10:02;;;;;;;2.62;1.60;;;;;;;4.79;65.07;99454.19;4305157;33;35067;-69
2022/01/28 06:12:30;;;;;;;2.53;1.58;;;;;;;4.26;66.49;99455.97;4304841;33;34428;-70
2022/01/28 06:14:57;;;;;;;2.70;2.00;;;;;;;4.53;65.83;99470.13;4304658;33;33671;-70
2022/01/28 06:17:26;;;;;;;3.03;1.90;;;;;;;4.64;65.70;99463.44;4304987;33;33945;-71
2022/01/28 06:19:53;;;;;;;3.08;2.20;;;;;;;5.21;63.97;99476.28;4304443;33;35138;-70
2022/01/28 06:22:21;;;;;;;2.40;1.70;;;;;;;4.65;65.40;99483.22;4304725;33;35327;-69
2022/01/28 06:24:50;;;;;;;2.92;1.85;;;;;;;4.64;65.43;99485.78;4303926;33;33359;-71
2022/01/28 06:27:17;;;;;;;2.72;1.62;;;;;;;4.36;66.19;99491.37;4290768;33;33895;-72
2022/01/28 06:29:46;;;;;;;2.15;1.48;;;;;;;4.77;65.02;99492.00;4303673;33;35054;-70
2022/01/28 06:32:14;;;;;;;1.42;1.27;;;;;;;4.50;65.54;99490.72;4316052;33;33216;-71
2022/01/28 06:34:45;;;;;;;2.97;1.67;;;;;;;4.47;65.86;99491.53;4304489;33;33409;-71
2022/01/28 06:37:12;;;;;;;3.08;1.67;;;;;;;4.52;65.62;99489.06;4292287;33;34325;-72
2022/01/28 06:39:40;;;;;;;1.15;1.00;;;;;;;4.49;65.53;99494.16;4304535;33;35901;-71
2022/01/28 06:42:08;;;;;;;2.58;1.62;;;;;;;4.58;64.90;99489.13;4305112;33;34422;-71
2022/01/28 06:44:37;;;;;;;3.33;1.73;;;;;;;4.57;65.30;99497.72;4304575;33;33651;-70
2022/01/28 06:47:05;;;;;;;2.12;1.67;;;;;;;4.62;64.60;99490.91;4305163;33;33210;-70
2022/01/28 06:49:33;;;;;;;2.00;1.52;;;;;;;4.50;64.84;99481.28;4304267;33;35951;-71
2022/01/28 06:52:02;;;;;;;1.70;1.30;;;;;;;4.52;64.65;99489.06;4304882;33;34732;-70
2022/01/28 06:54:30;;;;;;;2.30;1.42;;;;;;;4.36;65.25;99468.16;4292159;33;33307;-70
2022/01/28 06:56:58;;;;;;;2.03;1.35;;;;;;;4.52;64.22;99502.81;4304335;33;34037;-71
2022/01/28 06:59:26;;;;;;;1.90;1.60;;;;;;;4.53;64.05;99507.09;4305046;33;35756;-71
2022/01/28 07:01:55;;;;;;;5.68;1.33;;;;;;;4.75;63.09;99513.47;4304208;33;34443;-71
2022/01/28 07:04:23;;;;;;;1.50;1.30;;;;;;;4.55;64.17;99520.03;4305028;33;34260;-71
2022/01/28 07:06:50;;;;;;;1.10;1.00;;;;;;;4.44;64.27;99521.56;4304189;33;35074;-71
2022/01/28 07:09:18;;;;;;;2.90;1.60;;;;;;;5.19;62.74;99524.41;4305154;33;35290;-71
2022/01/28 07:11:46;;;;;;;2.95;1.27;;;;;;;5.33;61.95;99533.25;4290235;33;35361;-71
2022/01/28 07:14:16;;;;;;;2.65;1.30;;;;;;;5.75;60.33;99531.16;4305030;33;33325;-72
2022/01/28 07:16:44;;;;;;;1.95;1.40;;;;;;;5.69;60.13;99547.47;4314206;33;33891;-71
2022/01/28 07:19:12;;;;;;;3.62;1.25;;;;;;;6.61;57.42;99550.19;4304031;33;35007;-70
2022/01/28 07:21:40;;;;;;;1.77;1.35;;;;;;;6.62;56.68;99542.44;4291040;33;35258;-71
2022/01/28 07:24:08;;;;;;;2.35;1.20;;;;;;;6.52;56.32;99543.19;4304124;33;33375;-71
2022/01/28 07:26:36;;;;;;;2.00;1.33;;;;;;;6.83;55.60;99530.53;4302370;33;33888;-71
2022/01/28 07:29:04;;;;;;;1.65;1.20;;;;;;;6.54;55.83;99528.56;4304721;33;35108;-69
2022/01/28 07:31:33;;;;;;;1.12;1.02;;;;;;;6.70;55.64;99505.41;4303846;33;34500;-70
2022/01/28 07:34:01;;;;;;;1.77;1.23;;;;;;;6.22;56.19;99518.78;4304468;33;34524;-71
2022/01/28 07:36:29;;;;;;;2.95;1.65;;;;;;;6.79;55.06;99526.16;4290835;33;33906;-71
2022/01/28 07:38:57;;;;;;;1.85;1.08;;;;;;;6.24;56.06;99530.00;4304683;33;35862;-70
2022/01/28 07:41:26;;;;;;;2.08;1.23;;;;;;;6.25;55.88;99503.31;4303760;33;35133;-70
2022/01/28 07:43:54;;;;;;;1.95;1.27;;;;;;;5.63;57.96;99547.38;4303594;33;33557;-69
2022/01/28 07:46:23;;;;;;;1.90;1.20;;;;;;;6.04;56.58;99547.06;4303749;33;34594;-71
2022/01/28 07:48:51;;;;;;;1.80;1.15;;;;;;;6.12;55.92;99550.56;4304556;33;34938;-69
2022/01/28 07:51:18;;;;;;;1.58;1.40;;;;;;;5.72;56.15;99563.03;4303737;33;34495;-70
2022/01/28 07:53:46;;;;;;;1.70;1.33;;;;;;;6.29;54.57;99566.25;4303334;33;33518;-70
2022/01/28 07:56:15;;;;;;;3.30;1.40;;;;;;;6.75;54.48;99571.00;4303729;33;34760;-70
2022/01/28 07:58:42;;;;;;;1.42;1.30;;;;;;;6.36;54.96;99572.38;4304386;33;35959;-70
2022/01/28 08:01:10;;;;;;;1.65;1.25;;;;;;;6.25;54.45;99580.88;4303528;33;35470;-71
2022/01/28 08:03:39;;;;;;;1.50;1.10;;;;;;;6.37;54.26;99568.91;4303660;33;33440;-70
2022/01/28 08:06:07;;;;;;;1.50;1.15;;;;;;;6.48;53.59;99569.03;4303699;33;33749;-71
2022/01/28 08:08:34;;;;;;;1.85;1.55;;;;;;;6.08;54.37;99565.19;4304388;33;35811;-72
2022/01/28 08:11:03;;;;;;;0.88;0.82;;;;;;;6.03;55.03;99566.84;4303510;33;35297;-73
2022/01/28 08:13:30;;;;;;;1.80;1.00;;;;;;;6.41;53.49;99555.19;4291297;33;33335;-73
2022/01/28 08:15:58;;;;;;;2.47;1.00;;;;;;;6.45;53.35;99551.75;4303386;33;34049;-72
2022/01/28 08:18:27;;;;;;;1.42;0.93;;;;;;;7.01;51.87;99559.13;4289587;33;34283;-72
2022/01/28 08:20:55;;;;;;;2.20;1.12;;;;;;;6.91;51.70;99552.13;4290368;33;34420;-73
2022/01/28 08:23:22;;;;;;;2.12;1.12;;;;;;;7.09;50.84;99568.66;4303231;33;34510;-71
2022/01/28 08:25:54;;;;;;;1.40;1.23;;;;;;;6.91;50.68;99572.84;4301898;33;33887;-73
2022/01/28 08:28:22;;;;;;;1.00;0.90;;;;;;;6.62;51.38;99578.66;4304057;33;35303;-71
2022/01/28 08:30:49;;;;;;;1.37;0.98;;;;;;;6.68;51.12;99588.19;4303375;33;34561;-70
2022/01/28 08:33:17;;;;;;;3.67;0.88;;;;;;;6.61;51.39;99568.28;4304113;33;33351;-70
2022/01/28 08:35:51;;;;;;;0.98;0.88;;;;;;;7.32;49.32;99554.13;4303142;33;33952;-71
2022/01/28 08:38:30;;;;;;;0.80;0.80;;;;;;;6.85;50.05;99578.00;4304176;33;35030;-73
2022/01/28 08:40:59;;;;;;;0.85;0.85;;;;;;;7.18;50.63;99582.56;4303222;33;35300;-71
2022/01/28 08:43:27;;;;;;;0.73;0.70;;;;;;;6.45;51.32;99564.69;4304160;33;34320;-69
2022/01/28 08:45:55;;;;;;;1.10;0.95;;;;;;;6.75;50.55;99568.41;4303081;33;33865;-70
2022/01/28 08:48:23;;;;;;;4.20;1.00;;;;;;;6.91;49.47;99575.44;4290124;33;35013;-69
2022/01/28 08:50:53;;;;;;;1.20;0.80;;;;;;;6.41;49.75;99565.53;4303113;33;35391;-72
2022/01/28 08:53:21;;;;;;;1.10;0.70;;;;;;;6.44;50.18;99575.88;4290824;33;33387;-71
2022/01/28 08:55:48;;;;;;;0.80;0.80;;;;;;;6.71;49.21;99580.47;4302937;33;34664;-73
2022/01/28 08:58:22;;;;;;;1.23;0.80;;;;;;;6.52;49.70;99586.31;4291464;33;35111;-72
2022/01/28 09:00:51;;;;;;;0.80;0.80;;;;;;;7.03;48.30;99585.03;4311949;33;33643;-72
2022/01/28 09:03:21;;;;;;;0.70;0.70;;;;;;;7.81;47.62;99591.53;4314669;33;33509;-70
2022/01/28 09:05:49;;;;;;;1.20;0.85;;;;;;;8.81;45.82;99597.03;4290092;33;33969;-70
2022/01/28 09:08:17;;;;;;;0.88;0.88;;;;;;;8.53;46.81;99584.88;4303722;33;35720;-70
2022/01/28 09:10:56;;;;;;;1.02;0.85;;;;;;;8.71;45.48;99575.38;4302822;33;34532;-70
2022/01/28 09:13:29;;;;;;;1.12;1.00;;;;;;;8.93;45.81;99576.25;4303569;33;34586;-70
2022/01/28 09:15:57;;;;;;;0.93;0.70;;;;;;;8.54;47.18;99589.19;4302489;33;34630;-69
2022/01/28 09:18:25;;;;;;;1.33;0.80;;;;;;;8.23;47.41;99580.44;4302637;33;35158;-70
2022/01/28 09:20:53;;;;;;;0.70;0.70;;;;;;;8.28;48.74;99598.63;4287982;33;35404;-72
2022/01/28 09:23:21;;;;;;;0.80;0.80;;;;;;;8.09;48.29;99600.28;4303430;33;33273;-73
2022/01/28 09:25:49;;;;;;;0.88;0.85;;;;;;;7.71;49.00;99601.88;4289528;33;33967;-73
2022/01/28 09:28:17;;;;;;;0.70;0.70;;;;;;;7.86;49.45;99595.03;4303307;33;35035;-73
2022/01/28 09:30:45;;;;;;;0.82;0.77;;;;;;;7.85;48.88;99598.47;4302868;33;35276;-72
2022/01/28 09:33:13;;;;;;;0.77;0.77;;;;;;;8.25;48.21;99598.63;4303224;33;34406;-74
2022/01/28 09:35:41;;;;;;;0.70;0.70;;;;;;;8.62;46.20;99591.78;4303366;33;33994;-70
2022/01/28 09:38:10;;;;;;;0.60;0.60;;;;;;;8.68;46.08;99609.09;4304293;33;35284;-69
2022/01/28 09:40:38;;;;;;;0.60;0.60;;;;;;;7.45;47.36;99569.75;4290781;33;35416;-69
2022/01/28 09:43:08;;;;;;;2.87;0.70;;;;;;;7.22;48.33;99599.00;4305407;33;33431;-69
2022/01/28 09:45:36;;;;;;;0.90;0.68;;;;;;;7.71;48.21;99625.19;4304465;33;34857;-69
2022/01/28 09:48:04;;;;;;;4.45;1.08;;;;;;;8.27;45.98;99599.47;4305294;33;35033;-72
2022/01/28 09:50:33;;;;;;;2.53;0.90;;;;;;;8.11;46.00;99608.94;4303481;33;35261;-71
2022/01/28 09:53:02;;;;;;;1.95;0.70;;;;;;;8.05;46.14;99612.37;4303171;33;33916;-73
2022/01/28 09:55:31;;;;;;;1.75;0.70;;;;;;;9.81;42.04;99596.84;4292037;33;34970;-70
2022/01/28 09:58:00;;;;;;;2.92;1.00;;;;;;;9.85;41.59;99601.19;4315581;33;35018;-69
2022/01/28 10:00:30;;;;;;;1.40;0.90;;;;;;;9.65;42.04;99580.44;4305116;33;34531;-70
2022/01/28 10:03:02;;;;;;;0.70;0.70;;;;;;;9.38;42.99;99620.37;4291247;33;32820;-71
2022/01/28 10:05:35;;;;;;;1.60;0.88;;;;;;;10.39;41.44;99612.25;4305343;33;33893;-70
2022/01/28 10:08:06;;;;;;;2.37;0.73;;;;;;;8.50;42.76;99621.19;4305056;33;35943;-70
2022/01/28 10:10:50;;;;;;;1.50;0.70;;;;;;;9.57;41.40;99601.25;4292185;33;34988;-72
2022/01/28 10:13:28;;;;;;;0.68;0.68;;;;;;;10.50;39.72;99595.69;4290871;33;33421;-69
2022/01/28 10:15:58;;;;;;;1.20;0.77;;;;;;;10.98;38.21;99598.81;4296527;33;33900;-72
2022/01/28 10:18:44;;;;;;;3.72;1.08;;;;;;;9.97;39.94;99601.16;4305209;33;35057;-69
2022/01/28 10:21:20;;;;;;;1.05;0.90;;;;;;;10.89;38.35;99593.66;4304321;33;35161;-70
2022/01/28 10:23:59;;;;;;;1.00;0.60;;;;;;;10.94;36.52;99566.72;4304068;33;33449;-72
2022/01/28 10:26:51;;;;;;;1.08;0.73;;;;;;;10.77;37.78;99585.06;4304126;33;33980;-72
2022/01/28 10:29:23;;;;;;;0.75;0.75;;;;;;;9.69;39.96;99579.56;4304031;33;35130;-72
2022/01/28 10:32:02;;;;;;;0.60;0.60;;;;;;;10.86;38.18;99580.69;4302957;33;33865;-72
2022/01/28 10:34:32;;;;;;;1.50;1.00;;;;;;;8.98;40.87;99584.03;4305099;33;33412;-71
2022/01/28 10:37:22;;;;;;;4.57;0.88;;;;;;;8.74;41.73;99567.59;4303351;33;35350;-72
2022/01/28 10:39:52;;;;;;;1.33;0.70;;;;;;;10.19;39.17;99580.22;4303776;33;35974;-70
2022/01/28 10:42:25;;;;;;;0.70;0.70;;;;;;;10.32;38.95;99532.44;4304189;33;35206;-71
2022/01/28 10:44:58;;;;;;;1.58;0.82;;;;;;;10.87;38.09;99570.25;4305130;33;34221;-72
2022/01/28 10:47:35;;;;;;;1.20;0.75;;;;;;;11.36;37.77;99553.28;4303121;33;34815;-71
2022/01/28 10:50:34;;;;;;;0.65;0.65;;;;;;;10.30;38.47;99552.37;4304093;33;34673;-72
2022/01/28 10:53:06;;;;;;;0.65;0.65;;;;;;;9.92;40.20;99558.69;4303641;33;34456;-72
2022/01/28 10:55:45;;;;;;;1.17;0.65;;;;;;;11.54;38.20;99573.94;4290457;33;33792;-72
2022/01/28 10:58:16;;;;;;;0.88;0.88;;;;;;;10.93;39.23;99571.94;4291761;33;34035;-70
2022/01/28 11:00:48;;;;;;;1.75;0.90;;;;;;;11.17;38.69;99548.25;4304821;33;35031;-71
2022/01/28 11:03:20;;;;;;;0.90;0.70;;;;;;;9.99;40.82;99582.94;4304799;33;33906;-74
2022/01/28 11:05:48;;;;;;;2.45;0.88;;;;;;;10.11;41.19;99575.06;4304935;33;33422;-72
2022/01/28 11:08:16;;;;;;;1.30;0.80;;;;;;;10.95;40.11;99578.00;4291705;33;32579;-71
2022/01/28 11:10:44;;;;;;;1.12;0.77;;;;;;;11.02;39.17;99564.03;4304032;33;35000;-73
2022/01/28 11:13:12;;;;;;;0.77;0.68;;;;;;;9.59;42.80;99577.88;4290994;33;35229;-71
2022/01/28 11:15:40;;;;;;;12.00;1.23;;;;;;;8.29;45.25;99593.41;4303501;33;33467;-70
2022/01/28 11:18:08;;;;;;;4.72;0.90;;;;;;;7.54;46.51;99600.91;4303137;33;33867;-71
2022/01/28 11:20:45;;;;;;;3.42;1.17;;;;;;;6.93;48.64;99612.56;4303533;33;36043;-70
2022/01/28 11:23:29;;;;;;;1.12;0.90;;;;;;;6.67;49.97;99614.94;4303994;33;34454;-72
2022/01/28 11:26:15;;;;;;;1.87;0.80;;;;;;;6.48;50.99;99629.41;4304074;33;33423;-70
2022/01/28 11:28:48;;;;;;;1.95;0.85;;;;;;;6.44;51.29;99627.63;4291238;33;33160;-72
2022/01/28 11:31:42;;;;;;;0.73;0.70;;;;;;;6.76;50.33;99629.66;4304160;33;34842;-71
2022/01/28 11:34:30;;;;;;;0.70;0.70;;;;;;;6.86;50.56;99630.63;4304566;33;35071;-71
2022/01/28 11:37:02;;;;;;;0.70;0.70;;;;;;;7.06;50.25;99628.19;4290890;33;33325;-72
2022/01/28 11:39:38;;;;;;;1.45;0.80;;;;;;;6.99;50.53;99638.50;4304745;33;34713;-72
2022/01/28 11:42:25;;;;;;;1.33;1.10;;;;;;;6.48;52.17;99652.69;4291029;33;34689;-73
2022/01/28 11:44:59;;;;;;;2.90;1.20;;;;;;;6.32;51.76;99648.16;4304555;33;35348;-71
2022/01/28 11:47:32;;;;;;;0.70;0.70;;;;;;;6.88;50.66;99649.63;4302013;33;33584;-71
2022/01/28 11:50:13;;;;;;;0.60;0.60;;;;;;;6.62;50.82;99638.16;4303479;33;33918;-70
2022/01/28 11:52:52;;;;;;;1.77;1.12;;;;;;;6.42;51.66;99655.19;4301908;33;34950;-72
2022/01/28 11:55:26;;;;;;;5.03;1.12;;;;;;;6.39;51.07;99632.75;4304414;33;34373;-69
2022/01/28 11:58:01;;;;;;;1.15;0.90;;;;;;;6.57;51.27;99631.22;4303279;33;34289;-70
2022/01/28 12:00:50;;;;;;;1.52;1.15;;;;;;;6.65;51.22;99632.16;4303816;33;33933;-71
2022/01/28 12:03:26;;;;;;;1.37;0.80;;;;;;;6.33;52.44;99629.22;4303721;33;35031;-71
2022/01/28 12:05:56;;;;;;;1.33;1.00;;;;;;;6.61;50.89;99620.91;4289178;33;34467;-69
2022/01/28 12:08:30;;;;;;;1.08;0.77;;;;;;;6.34;50.94;99624.09;4298353;33;35361;-71
2022/01/28 12:11:01;;;;;;;5.10;1.20;;;;;;;6.53;51.01;99634.59;4314631;33;34024;-69
2022/01/28 12:13:49;;;;;;;1.85;1.00;;;;;;;6.28;51.26;99620.56;4303563;33;35062;-69
2022/01/28 12:16:29;;;;;;;1.67;1.10;;;;;;;5.98;51.95;99637.44;4303352;33;35027;-70
2022/01/28 12:18:59;;;;;;;1.45;0.95;;;;;;;6.03;51.78;99640.94;4301986;33;34176;-70
2022/01/28 12:21:34;;;;;;;1.90;0.98;;;;;;;6.22;51.21;99639.47;4290217;33;33829;-69
2022/01/28 12:24:20;;;;;;;0.82;0.80;;;;;;;6.15;51.30;99653.16;4303819;33;35024;-70
2022/01/28 12:27:09;;;;;;;2.92;1.02;;;;;;;5.98;51.17;99642.59;4302991;33;34582;-70
2022/01/28 12:29:43;;;;;;;2.78;1.30;;;;;;;6.27;51.16;99648.13;4304112;33;34325;-70
2022/01/28 12:32:11;;;;;;;1.02;0.90;;;;;;;6.05;51.78;99649.59;4303040;33;33916;-69
2022/01/28 12:34:47;;;;;;;0.80;0.80;;;;;;;6.06;50.99;99628.06;4303121;33;34940;-70
2022/01/28 12:37:20;;;;;;;1.33;1.05;;;;;;;5.71;52.33;99625.84;4296592;33;34648;-70
2022/01/28 12:39:56;;;;;;;1.33;0.90;;;;;;;5.91;51.82;99641.63;4289622;33;34471;-70
2022/01/28 12:42:25;;;;;;;1.45;1.02;;;;;;;6.10;51.46;99657.41;4295718;33;33905;-69
2022/01/28 12:44:58;;;;;;;1.10;0.85;;;;;;;5.93;51.67;99658.03;4303972;33;35179;-70
2022/01/28 12:47:32;;;;;;;1.75;1.00;;;;;;;6.54;49.85;99649.28;4289601;33;34454;-69
2022/01/28 12:50:03;;;;;;;0.90;0.85;;;;;;;6.14;50.99;99654.00;4289903;33;33275;-69
2022/01/28 12:52:32;;;;;;;1.60;0.90;;;;;;;6.70;50.09;99665.84;4313408;33;34606;-70
2022/01/28 12:55:00;;;;;;;0.85;0.85;;;;;;;6.21;50.96;99658.41;4297052;33;34882;-72
2022/01/28 12:57:29;;;;;;;3.08;1.08;;;;;;;6.50;50.21;99655.28;4302777;33;34395;-71
2022/01/28 12:59:57;;;;;;;1.33;0.95;;;;;;;6.48;49.97;99664.72;4303352;33;33411;-70
2022/01/28 13:02:32;;;;;;;6.37;1.60;;;;;;;6.11;51.04;99665.19;4289674;33;33665;-71
2022/01/28 13:10:31;;;;;;;1.70;1.00;;;;;;;5.91;51.69;99682.09;4312978;33;33285;-71
2022/01/28 13:13:10;;;;;;;1.73;0.82;;;;;;;6.02;51.27;99688.34;4304774;33;33860;-71
2022/01/28 13:15:40;;;;;;;2.00;1.27;;;;;;;6.23;50.73;99682.59;4304180;33;35039;-71
2022/01/28 13:18:08;;;;;;;1.02;0.93;;;;;;;6.34;50.65;99677.53;4304122;33;35065;-72
2022/01/28 13:20:40;;;;;;;1.48;1.12;;;;;;;6.59;50.12;99679.53;4304522;33;34382;-71
2022/01/28 13:23:11;;;;;;;3.58;1.17;;;;;;;6.10;50.62;99673.78;4303502;33;33996;-72
2022/01/28 13:25:39;;;;;;;1.30;1.02;;;;;;;6.11;50.70;99678.12;4304125;33;35128;-71
2022/01/28 13:28:15;;;;;;;0.98;0.80;;;;;;;6.18;50.98;99677.34;4289964;33;34378;-71
2022/01/28 13:30:54;;;;;;;3.25;1.17;;;;;;;6.51;49.83;99681.19;4275323;33;33730;-71
2022/01/28 13:33:30;;;;;;;1.37;0.77;;;;;;;6.53;50.15;99683.75;4286452;33;33919;-71
2022/01/28 13:35:59;;;;;;;;;;;;;;;5.94;51.39;99683.03;4290950;33;35573;-70
2022/01/28 13:38:38;;;;;;;2.00;1.17;;;;;;;6.04;50.98;99676.31;4290010;33;34636;-71